sensor_id;sensor_type;location;lat;lon;timestamp;temperature;humidity
47338;DHT22;33069;51.970;5.892;2022-09-30T00:01:36;8.70;87.90
47338;DHT22;33069;51.970;5.892;2022-09-30T00:04:04;8.70;88.00
47338;DHT22;33069;51.970;5.892;2022-09-30T00:06:30;8.70;88.00
47338;DHT22;33069;51.970;5.892;2022-09-30T00:08:57;8.70;88.00
47338;DHT22;33069;51.970;5.892;2022-09-30T00:11:28;8.60;88.00
47338;DHT22;33069;51.970;5.892;2022-09-30T00:13:55;8.60;87.90
47338;DHT22;33069;51.970;5.892;2022-09-30T00:16:24;8.50;87.90
47338;DHT22;33069;51.970;5.892;2022-09-30T00:18:50;8.50;87.90
47338;DHT22;33069;51.970;5.892;2022-09-30T00:21:18;8.60;88.00
47338;DHT22;33069;51.970;5.892;2022-09-30T00:23:44;8.40;87.70
47338;DHT22;33069;51.970;5.892;2022-09-30T00:26:13;8.70;87.80
47338;DHT22;33069;51.970;5.892;2022-09-30T00:28:39;8.60;87.40
47338;DHT22;33069;51.970;5.892;2022-09-30T00:31:09;8.40;87.30
47338;DHT22;33069;51.970;5.892;2022-09-30T00:33:36;8.40;87.40
47338;DHT22;33069;51.970;5.892;2022-09-30T00:36:02;8.40;87.40
47338;DHT22;33069;51.970;5.892;2022-09-30T00:38:28;8.40;87.40
47338;DHT22;33069;51.970;5.892;2022-09-30T00:40:54;8.40;87.50
47338;DHT22;33069;51.970;5.892;2022-09-30T00:43:43;8.40;87.40
47338;DHT22;33069;51.970;5.892;2022-09-30T00:46:39;8.20;87.30
47338;DHT22;33069;51.970;5.892;2022-09-30T00:49:12;8.20;87.50
47338;DHT22;33069;51.970;5.892;2022-09-30T00:51:43;8.10;87.50
47338;DHT22;33069;51.970;5.892;2022-09-30T00:54:13;8.10;87.60
47338;DHT22;33069;51.970;5.892;2022-09-30T00:56:45;8.00;87.70
47338;DHT22;33069;51.970;5.892;2022-09-30T00:59:16;8.10;87.80
47338;DHT22;33069;51.970;5.892;2022-09-30T01:01:43;8.00;87.60
47338;DHT22;33069;51.970;5.892;2022-09-30T01:04:21;8.10;87.70
47338;DHT22;33069;51.970;5.892;2022-09-30T01:06:48;8.00;87.50
47338;DHT22;33069;51.970;5.892;2022-09-30T01:09:15;8.10;87.50
47338;DHT22;33069;51.970;5.892;2022-09-30T01:11:41;8.00;87.30
47338;DHT22;33069;51.970;5.892;2022-09-30T01:14:14;8.00;87.20
47338;DHT22;33069;51.970;5.892;2022-09-30T01:25:40;8.00;87.10
47338;DHT22;33069;51.970;5.892;2022-09-30T01:36:00;7.80;87.40
47338;DHT22;33069;51.970;5.892;2022-09-30T01:39:16;8.00;87.60
47338;DHT22;33069;51.970;5.892;2022-09-30T01:42:01;7.90;87.50
47338;DHT22;33069;51.970;5.892;2022-09-30T01:44:39;7.70;87.40
47338;DHT22;33069;51.970;5.892;2022-09-30T01:47:11;7.60;87.40
47338;DHT22;33069;51.970;5.892;2022-09-30T01:49:48;7.50;87.60
47338;DHT22;33069;51.970;5.892;2022-09-30T01:52:21;7.50;87.90
47338;DHT22;33069;51.970;5.892;2022-09-30T01:57:44;7.50;88.30
47338;DHT22;33069;51.970;5.892;2022-09-30T02:00:11;7.40;88.30
47338;DHT22;33069;51.970;5.892;2022-09-30T02:03:00;7.40;88.40
47338;DHT22;33069;51.970;5.892;2022-09-30T02:08:21;7.40;88.40
47338;DHT22;33069;51.970;5.892;2022-09-30T02:10:56;7.20;88.30
47338;DHT22;33069;51.970;5.892;2022-09-30T02:13:42;7.10;88.40
47338;DHT22;33069;51.970;5.892;2022-09-30T02:16:14;7.20;88.60
47338;DHT22;33069;51.970;5.892;2022-09-30T02:18:45;7.30;88.60
47338;DHT22;33069;51.970;5.892;2022-09-30T02:21:16;7.30;88.60
47338;DHT22;33069;51.970;5.892;2022-09-30T02:23:46;7.40;88.60
47338;DHT22;33069;51.970;5.892;2022-09-30T02:26:23;7.50;88.50
47338;DHT22;33069;51.970;5.892;2022-09-30T02:29:00;7.70;88.50
47338;DHT22;33069;51.970;5.892;2022-09-30T02:31:33;7.60;88.40
47338;DHT22;33069;51.970;5.892;2022-09-30T02:34:08;7.60;88.30
47338;DHT22;33069;51.970;5.892;2022-09-30T02:36:44;7.70;88.30
47338;DHT22;33069;51.970;5.892;2022-09-30T02:39:42;7.50;88.10
47338;DHT22;33069;51.970;5.892;2022-09-30T02:42:18;7.60;88.20
47338;DHT22;33069;51.970;5.892;2022-09-30T02:44:49;7.50;88.20
47338;DHT22;33069;51.970;5.892;2022-09-30T02:49:54;7.40;88.20
47338;DHT22;33069;51.970;5.892;2022-09-30T02:53:22;7.30;88.30
47338;DHT22;33069;51.970;5.892;2022-09-30T02:58:20;7.30;88.50
47338;DHT22;33069;51.970;5.892;2022-09-30T03:00:49;7.20;88.50
47338;DHT22;33069;51.970;5.892;2022-09-30T03:05:51;7.10;88.50
47338;DHT22;33069;51.970;5.892;2022-09-30T03:08:17;7.00;88.60
47338;DHT22;33069;51.970;5.892;2022-09-30T03:10:44;7.10;88.70
47338;DHT22;33069;51.970;5.892;2022-09-30T03:16:19;7.00;88.70
47338;DHT22;33069;51.970;5.892;2022-09-30T03:22:10;6.90;88.80
47338;DHT22;33069;51.970;5.892;2022-09-30T03:30:40;6.80;88.90
47338;DHT22;33069;51.970;5.892;2022-09-30T03:40:57;6.50;89.00
47338;DHT22;33069;51.970;5.892;2022-09-30T03:49:17;6.80;89.40
47338;DHT22;33069;51.970;5.892;2022-09-30T03:51:45;6.80;89.40
47338;DHT22;33069;51.970;5.892;2022-09-30T03:54:11;6.80;89.30
47338;DHT22;33069;51.970;5.892;2022-09-30T03:56:38;6.70;89.20
47338;DHT22;33069;51.970;5.892;2022-09-30T03:59:25;6.80;89.20
47338;DHT22;33069;51.970;5.892;2022-09-30T04:01:55;6.80;89.10
47338;DHT22;33069;51.970;5.892;2022-09-30T04:04:22;6.80;89.10
47338;DHT22;33069;51.970;5.892;2022-09-30T04:06:47;6.80;89.00
47338;DHT22;33069;51.970;5.892;2022-09-30T04:09:13;6.70;88.90
47338;DHT22;33069;51.970;5.892;2022-09-30T04:11:39;6.80;89.00
47338;DHT22;33069;51.970;5.892;2022-09-30T04:14:05;6.80;89.00
47338;DHT22;33069;51.970;5.892;2022-09-30T04:16:31;6.80;89.00
47338;DHT22;33069;51.970;5.892;2022-09-30T04:18:57;6.80;88.90
47338;DHT22;33069;51.970;5.892;2022-09-30T04:21:23;6.90;88.80
47338;DHT22;33069;51.970;5.892;2022-09-30T04:23:49;7.00;88.80
47338;DHT22;33069;51.970;5.892;2022-09-30T04:26:17;6.80;88.60
47338;DHT22;33069;51.970;5.892;2022-09-30T04:28:45;6.90;88.60
47338;DHT22;33069;51.970;5.892;2022-09-30T04:31:12;7.00;88.60
47338;DHT22;33069;51.970;5.892;2022-09-30T04:33:38;7.10;88.50
47338;DHT22;33069;51.970;5.892;2022-09-30T04:36:05;7.00;88.40
47338;DHT22;33069;51.970;5.892;2022-09-30T04:38:31;7.20;88.50
47338;DHT22;33069;51.970;5.892;2022-09-30T04:41:01;7.10;88.40
47338;DHT22;33069;51.970;5.892;2022-09-30T04:43:28;6.90;88.30
47338;DHT22;33069;51.970;5.892;2022-09-30T04:45:54;6.80;88.30
47338;DHT22;33069;51.970;5.892;2022-09-30T04:48:21;6.80;88.30
47338;DHT22;33069;51.970;5.892;2022-09-30T04:50:48;6.70;88.50
47338;DHT22;33069;51.970;5.892;2022-09-30T04:53:14;6.60;88.70
47338;DHT22;33069;51.970;5.892;2022-09-30T04:55:40;6.60;88.90
47338;DHT22;33069;51.970;5.892;2022-09-30T04:58:06;6.60;89.00
47338;DHT22;33069;51.970;5.892;2022-09-30T05:00:32;6.60;89.10
47338;DHT22;33069;51.970;5.892;2022-09-30T05:02:58;6.60;89.20
47338;DHT22;33069;51.970;5.892;2022-09-30T05:05:23;6.50;89.30
47338;DHT22;33069;51.970;5.892;2022-09-30T05:07:49;6.50;89.30
47338;DHT22;33069;51.970;5.892;2022-09-30T05:10:15;6.70;89.50
47338;DHT22;33069;51.970;5.892;2022-09-30T05:12:41;6.60;89.40
47338;DHT22;33069;51.970;5.892;2022-09-30T05:15:08;6.50;89.40
47338;DHT22;33069;51.970;5.892;2022-09-30T05:17:34;6.40;89.40
47338;DHT22;33069;51.970;5.892;2022-09-30T05:20:00;6.40;89.50
47338;DHT22;33069;51.970;5.892;2022-09-30T05:22:27;6.40;89.60
47338;DHT22;33069;51.970;5.892;2022-09-30T05:24:53;6.50;89.70
47338;DHT22;33069;51.970;5.892;2022-09-30T05:27:23;6.60;89.80
47338;DHT22;33069;51.970;5.892;2022-09-30T05:29:48;6.60;89.70
47338;DHT22;33069;51.970;5.892;2022-09-30T05:32:14;6.50;89.50
47338;DHT22;33069;51.970;5.892;2022-09-30T05:34:40;6.50;89.60
47338;DHT22;33069;51.970;5.892;2022-09-30T05:37:07;6.40;89.50
47338;DHT22;33069;51.970;5.892;2022-09-30T05:39:34;6.40;89.50
47338;DHT22;33069;51.970;5.892;2022-09-30T05:42:00;6.40;89.50
47338;DHT22;33069;51.970;5.892;2022-09-30T05:44:26;6.20;89.50
47338;DHT22;33069;51.970;5.892;2022-09-30T05:46:51;6.20;89.50
47338;DHT22;33069;51.970;5.892;2022-09-30T05:49:17;6.20;89.60
47338;DHT22;33069;51.970;5.892;2022-09-30T05:51:43;6.60;89.90
47338;DHT22;33069;51.970;5.892;2022-09-30T05:54:10;6.90;89.90
47338;DHT22;33069;51.970;5.892;2022-09-30T05:56:36;7.00;89.90
47338;DHT22;33069;51.970;5.892;2022-09-30T05:59:05;6.80;89.70
47338;DHT22;33069;51.970;5.892;2022-09-30T06:01:32;6.70;89.50
47338;DHT22;33069;51.970;5.892;2022-09-30T06:03:58;6.70;89.50
47338;DHT22;33069;51.970;5.892;2022-09-30T06:06:25;6.60;89.40
47338;DHT22;33069;51.970;5.892;2022-09-30T06:08:50;6.60;89.50
47338;DHT22;33069;51.970;5.892;2022-09-30T06:11:18;6.60;89.50
47338;DHT22;33069;51.970;5.892;2022-09-30T06:13:45;6.60;89.70
47338;DHT22;33069;51.970;5.892;2022-09-30T06:16:15;6.70;89.90
47338;DHT22;33069;51.970;5.892;2022-09-30T06:18:42;6.70;90.00
47338;DHT22;33069;51.970;5.892;2022-09-30T06:21:10;6.70;90.00
47338;DHT22;33069;51.970;5.892;2022-09-30T06:23:36;7.00;90.20
47338;DHT22;33069;51.970;5.892;2022-09-30T06:26:04;7.10;90.30
47338;DHT22;33069;51.970;5.892;2022-09-30T06:28:31;7.20;90.30
47338;DHT22;33069;51.970;5.892;2022-09-30T06:31:00;7.40;90.40
47338;DHT22;33069;51.970;5.892;2022-09-30T06:33:27;7.10;90.20
47338;DHT22;33069;51.970;5.892;2022-09-30T06:35:53;7.20;90.20
47338;DHT22;33069;51.970;5.892;2022-09-30T06:38:19;7.10;90.20
47338;DHT22;33069;51.970;5.892;2022-09-30T06:40:47;7.20;90.20
47338;DHT22;33069;51.970;5.892;2022-09-30T06:43:19;7.20;90.30
47338;DHT22;33069;51.970;5.892;2022-09-30T06:45:46;7.20;90.30
47338;DHT22;33069;51.970;5.892;2022-09-30T06:48:12;7.00;90.20
47338;DHT22;33069;51.970;5.892;2022-09-30T06:50:38;7.00;90.30
47338;DHT22;33069;51.970;5.892;2022-09-30T06:53:05;7.00;90.40
47338;DHT22;33069;51.970;5.892;2022-09-30T06:55:32;7.10;90.50
47338;DHT22;33069;51.970;5.892;2022-09-30T06:57:58;7.20;90.60
47338;DHT22;33069;51.970;5.892;2022-09-30T07:00:26;7.20;90.60
47338;DHT22;33069;51.970;5.892;2022-09-30T07:02:54;7.40;90.70
47338;DHT22;33069;51.970;5.892;2022-09-30T07:05:21;7.40;90.60
47338;DHT22;33069;51.970;5.892;2022-09-30T07:07:47;7.50;90.70
47338;DHT22;33069;51.970;5.892;2022-09-30T07:10:13;7.40;90.60
47338;DHT22;33069;51.970;5.892;2022-09-30T07:12:39;7.50;90.60
47338;DHT22;33069;51.970;5.892;2022-09-30T07:15:06;7.60;90.60
47338;DHT22;33069;51.970;5.892;2022-09-30T07:17:32;7.70;90.60
47338;DHT22;33069;51.970;5.892;2022-09-30T07:19:58;8.00;90.70
47338;DHT22;33069;51.970;5.892;2022-09-30T07:22:24;8.00;90.50
47338;DHT22;33069;51.970;5.892;2022-09-30T07:24:59;8.20;90.30
47338;DHT22;33069;51.970;5.892;2022-09-30T07:27:26;8.30;90.00
47338;DHT22;33069;51.970;5.892;2022-09-30T07:29:52;8.50;89.50
47338;DHT22;33069;51.970;5.892;2022-09-30T07:32:21;8.50;88.90
47338;DHT22;33069;51.970;5.892;2022-09-30T07:34:47;8.60;88.50
47338;DHT22;33069;51.970;5.892;2022-09-30T07:37:15;8.70;88.00
47338;DHT22;33069;51.970;5.892;2022-09-30T07:39:43;8.90;87.60
47338;DHT22;33069;51.970;5.892;2022-09-30T07:42:10;9.10;87.30
47338;DHT22;33069;51.970;5.892;2022-09-30T07:44:38;9.10;86.50
47338;DHT22;33069;51.970;5.892;2022-09-30T07:47:07;8.90;86.10
47338;DHT22;33069;51.970;5.892;2022-09-30T07:49:34;9.30;86.30
47338;DHT22;33069;51.970;5.892;2022-09-30T07:52:00;9.20;85.80
47338;DHT22;33069;51.970;5.892;2022-09-30T07:54:29;9.20;85.90
47338;DHT22;33069;51.970;5.892;2022-09-30T07:56:56;9.40;86.10
47338;DHT22;33069;51.970;5.892;2022-09-30T07:59:22;9.40;86.00
47338;DHT22;33069;51.970;5.892;2022-09-30T08:01:48;9.50;85.70
47338;DHT22;33069;51.970;5.892;2022-09-30T08:04:16;9.60;85.60
47338;DHT22;33069;51.970;5.892;2022-09-30T08:06:45;9.70;85.70
47338;DHT22;33069;51.970;5.892;2022-09-30T08:09:13;9.70;85.70
47338;DHT22;33069;51.970;5.892;2022-09-30T08:11:40;9.90;85.80
47338;DHT22;33069;51.970;5.892;2022-09-30T08:14:11;9.90;85.00
47338;DHT22;33069;51.970;5.892;2022-09-30T08:16:37;9.90;84.80
47338;DHT22;33069;51.970;5.892;2022-09-30T08:19:03;9.80;84.80
47338;DHT22;33069;51.970;5.892;2022-09-30T08:21:29;10.00;85.30
47338;DHT22;33069;51.970;5.892;2022-09-30T08:23:55;10.00;85.40
47338;DHT22;33069;51.970;5.892;2022-09-30T08:26:21;10.10;85.60
47338;DHT22;33069;51.970;5.892;2022-09-30T08:28:47;10.00;85.50
47338;DHT22;33069;51.970;5.892;2022-09-30T08:31:15;10.20;85.60
47338;DHT22;33069;51.970;5.892;2022-09-30T08:33:42;10.50;85.40
47338;DHT22;33069;51.970;5.892;2022-09-30T08:36:11;10.70;84.20
47338;DHT22;33069;51.970;5.892;2022-09-30T08:38:37;10.80;83.50
47338;DHT22;33069;51.970;5.892;2022-09-30T08:49:18;11.00;82.80
47338;DHT22;33069;51.970;5.892;2022-09-30T08:51:49;11.10;82.30
47338;DHT22;33069;51.970;5.892;2022-09-30T08:54:19;11.20;82.20
47338;DHT22;33069;51.970;5.892;2022-09-30T08:56:46;11.30;81.30
47338;DHT22;33069;51.970;5.892;2022-09-30T08:59:37;11.50;81.40
47338;DHT22;33069;51.970;5.892;2022-09-30T09:02:24;11.70;80.10
47338;DHT22;33069;51.970;5.892;2022-09-30T09:04:58;11.90;79.20
47338;DHT22;33069;51.970;5.892;2022-09-30T09:07:39;11.90;79.30
47338;DHT22;33069;51.970;5.892;2022-09-30T09:10:44;11.90;79.90
47338;DHT22;33069;51.970;5.892;2022-09-30T09:20:54;12.20;78.40
47338;DHT22;33069;51.970;5.892;2022-09-30T09:23:21;12.20;78.50
47338;DHT22;33069;51.970;5.892;2022-09-30T09:25:47;12.30;78.30
47338;DHT22;33069;51.970;5.892;2022-09-30T09:28:28;12.50;76.80
47338;DHT22;33069;51.970;5.892;2022-09-30T09:30:59;12.50;76.70
47338;DHT22;33069;51.970;5.892;2022-09-30T09:33:31;12.50;76.30
47338;DHT22;33069;51.970;5.892;2022-09-30T09:44:10;13.10;74.90
47338;DHT22;33069;51.970;5.892;2022-09-30T09:47:09;13.60;71.30
47338;DHT22;33069;51.970;5.892;2022-09-30T09:50:34;13.40;71.30
47338;DHT22;33069;51.970;5.892;2022-09-30T09:55:27;13.40;71.50
47338;DHT22;33069;51.970;5.892;2022-09-30T09:58:11;13.50;70.50
47338;DHT22;33069;51.970;5.892;2022-09-30T10:00:42;13.40;71.60
47338;DHT22;33069;51.970;5.892;2022-09-30T10:03:14;13.70;71.20
47338;DHT22;33069;51.970;5.892;2022-09-30T10:08:32;13.80;70.10
47338;DHT22;33069;51.970;5.892;2022-09-30T10:11:02;13.80;69.40
47338;DHT22;33069;51.970;5.892;2022-09-30T10:13:40;13.70;70.60
47338;DHT22;33069;51.970;5.892;2022-09-30T10:18:50;14.10;70.90
47338;DHT22;33069;51.970;5.892;2022-09-30T10:21:24;14.10;71.40
47338;DHT22;33069;51.970;5.892;2022-09-30T10:23:50;14.60;69.60
47338;DHT22;33069;51.970;5.892;2022-09-30T10:26:22;14.60;69.00
47338;DHT22;33069;51.970;5.892;2022-09-30T10:28:59;14.50;69.30
47338;DHT22;33069;51.970;5.892;2022-09-30T10:36:45;14.60;69.50
47338;DHT22;33069;51.970;5.892;2022-09-30T10:39:22;14.70;68.80
47338;DHT22;33069;51.970;5.892;2022-09-30T10:41:50;14.50;67.20
47338;DHT22;33069;51.970;5.892;2022-09-30T10:44:22;14.50;68.60
47338;DHT22;33069;51.970;5.892;2022-09-30T10:46:49;14.80;67.30
47338;DHT22;33069;51.970;5.892;2022-09-30T10:49:39;14.80;67.50
47338;DHT22;33069;51.970;5.892;2022-09-30T10:52:19;14.80;67.50
47338;DHT22;33069;51.970;5.892;2022-09-30T10:54:55;14.90;67.50
47338;DHT22;33069;51.970;5.892;2022-09-30T10:57:31;14.80;67.40
47338;DHT22;33069;51.970;5.892;2022-09-30T10:59:58;14.80;66.30
47338;DHT22;33069;51.970;5.892;2022-09-30T11:05:22;14.80;66.50
47338;DHT22;33069;51.970;5.892;2022-09-30T11:07:57;15.00;66.50
47338;DHT22;33069;51.970;5.892;2022-09-30T11:13:47;15.30;65.50
47338;DHT22;33069;51.970;5.892;2022-09-30T11:19:38;15.50;65.00
47338;DHT22;33069;51.970;5.892;2022-09-30T11:22:28;15.30;63.00
47338;DHT22;33069;51.970;5.892;2022-09-30T11:24:56;15.40;63.70
47338;DHT22;33069;51.970;5.892;2022-09-30T11:28:01;15.60;64.10
47338;DHT22;33069;51.970;5.892;2022-09-30T11:36:36;15.90;63.70
47338;DHT22;33069;51.970;5.892;2022-09-30T11:39:31;16.10;62.50
47338;DHT22;33069;51.970;5.892;2022-09-30T11:42:13;15.90;63.60
47338;DHT22;33069;51.970;5.892;2022-09-30T11:44:43;16.00;60.50
47338;DHT22;33069;51.970;5.892;2022-09-30T11:47:31;15.90;60.80
47338;DHT22;33069;51.970;5.892;2022-09-30T11:58:18;15.80;60.20
47338;DHT22;33069;51.970;5.892;2022-09-30T12:00:48;15.60;62.00
47338;DHT22;33069;51.970;5.892;2022-09-30T12:03:23;15.70;60.90
47338;DHT22;33069;51.970;5.892;2022-09-30T12:05:57;15.80;59.70
47338;DHT22;33069;51.970;5.892;2022-09-30T12:08:48;15.80;59.50
47338;DHT22;33069;51.970;5.892;2022-09-30T12:11:31;16.20;60.20
47338;DHT22;33069;51.970;5.892;2022-09-30T12:14:02;16.30;61.10
47338;DHT22;33069;51.970;5.892;2022-09-30T12:16:32;16.20;61.20
47338;DHT22;33069;51.970;5.892;2022-09-30T12:19:24;16.20;59.80
47338;DHT22;33069;51.970;5.892;2022-09-30T12:22:00;16.20;59.10
47338;DHT22;33069;51.970;5.892;2022-09-30T12:24:36;16.00;60.20
47338;DHT22;33069;51.970;5.892;2022-09-30T12:27:03;16.00;59.00
47338;DHT22;33069;51.970;5.892;2022-09-30T12:29:39;16.20;60.90
47338;DHT22;33069;51.970;5.892;2022-09-30T12:32:52;16.50;60.60
47338;DHT22;33069;51.970;5.892;2022-09-30T12:41:02;16.90;58.70
47338;DHT22;33069;51.970;5.892;2022-09-30T12:48:55;16.80;57.60
47338;DHT22;33069;51.970;5.892;2022-09-30T12:51:33;16.60;58.10
47338;DHT22;33069;51.970;5.892;2022-09-30T12:54:20;16.90;57.80
47338;DHT22;33069;51.970;5.892;2022-09-30T12:56:56;17.10;57.20
47338;DHT22;33069;51.970;5.892;2022-09-30T12:59:28;16.90;57.90
47338;DHT22;33069;51.970;5.892;2022-09-30T13:01:56;17.00;57.60
47338;DHT22;33069;51.970;5.892;2022-09-30T13:09:33;17.50;57.70
47338;DHT22;33069;51.970;5.892;2022-09-30T13:14:40;17.10;56.10
47338;DHT22;33069;51.970;5.892;2022-09-30T13:19:40;16.80;57.40
47338;DHT22;33069;51.970;5.892;2022-09-30T13:33:05;17.40;53.90
47338;DHT22;33069;51.970;5.892;2022-09-30T13:35:32;17.60;54.10
47338;DHT22;33069;51.970;5.892;2022-09-30T13:40:53;17.30;54.90
47338;DHT22;33069;51.970;5.892;2022-09-30T13:45:57;17.70;55.40
47338;DHT22;33069;51.970;5.892;2022-09-30T13:48:33;17.50;54.70
47338;DHT22;33069;51.970;5.892;2022-09-30T13:51:10;17.70;55.70
47338;DHT22;33069;51.970;5.892;2022-09-30T13:54:01;17.90;55.50
47338;DHT22;33069;51.970;5.892;2022-09-30T13:56:33;18.30;54.40
47338;DHT22;33069;51.970;5.892;2022-09-30T14:02:20;18.10;53.30
47338;DHT22;33069;51.970;5.892;2022-09-30T14:10:25;17.40;55.70
47338;DHT22;33069;51.970;5.892;2022-09-30T14:13:33;17.40;56.80
47338;DHT22;33069;51.970;5.892;2022-09-30T14:19:37;17.60;56.30
47338;DHT22;33069;51.970;5.892;2022-09-30T14:22:08;17.90;55.70
47338;DHT22;33069;51.970;5.892;2022-09-30T14:24:38;17.80;55.10
47338;DHT22;33069;51.970;5.892;2022-09-30T14:35:07;18.00;55.00
47338;DHT22;33069;51.970;5.892;2022-09-30T14:37:42;18.00;54.20
47338;DHT22;33069;51.970;5.892;2022-09-30T14:40:13;17.40;55.40
47338;DHT22;33069;51.970;5.892;2022-09-30T14:42:41;17.60;56.20
47338;DHT22;33069;51.970;5.892;2022-09-30T14:45:17;18.20;54.40
47338;DHT22;33069;51.970;5.892;2022-09-30T14:47:45;18.00;54.90
47338;DHT22;33069;51.970;5.892;2022-09-30T14:50:18;18.20;54.90
47338;DHT22;33069;51.970;5.892;2022-09-30T14:52:46;17.80;54.90
47338;DHT22;33069;51.970;5.892;2022-09-30T14:55:30;17.70;54.80
47338;DHT22;33069;51.970;5.892;2022-09-30T15:00:55;17.80;55.80
47338;DHT22;33069;51.970;5.892;2022-09-30T15:03:23;17.30;55.20
47338;DHT22;33069;51.970;5.892;2022-09-30T15:05:49;17.50;56.20
47338;DHT22;33069;51.970;5.892;2022-09-30T15:08:20;17.80;53.80
47338;DHT22;33069;51.970;5.892;2022-09-30T15:10:51;17.50;55.00
47338;DHT22;33069;51.970;5.892;2022-09-30T15:13:19;17.20;57.00
47338;DHT22;33069;51.970;5.892;2022-09-30T15:15:46;17.50;55.50
47338;DHT22;33069;51.970;5.892;2022-09-30T15:20:53;17.30;55.50
47338;DHT22;33069;51.970;5.892;2022-09-30T15:23:25;17.20;56.90
47338;DHT22;33069;51.970;5.892;2022-09-30T15:25:51;17.20;56.70
47338;DHT22;33069;51.970;5.892;2022-09-30T15:28:17;17.50;55.40
47338;DHT22;33069;51.970;5.892;2022-09-30T15:30:43;17.60;56.00
47338;DHT22;33069;51.970;5.892;2022-09-30T15:33:17;17.50;55.80
47338;DHT22;33069;51.970;5.892;2022-09-30T15:35:43;17.70;55.50
47338;DHT22;33069;51.970;5.892;2022-09-30T15:38:23;17.50;57.00
47338;DHT22;33069;51.970;5.892;2022-09-30T15:41:01;17.70;56.20
47338;DHT22;33069;51.970;5.892;2022-09-30T15:43:41;18.00;55.50
47338;DHT22;33069;51.970;5.892;2022-09-30T15:48:46;17.90;56.50
47338;DHT22;33069;51.970;5.892;2022-09-30T15:53:49;18.10;54.90
47338;DHT22;33069;51.970;5.892;2022-09-30T15:56:22;18.20;56.20
47338;DHT22;33069;51.970;5.892;2022-09-30T15:59:01;17.80;56.40
47338;DHT22;33069;51.970;5.892;2022-09-30T16:01:41;17.90;56.60
47338;DHT22;33069;51.970;5.892;2022-09-30T16:04:23;18.30;54.90
47338;DHT22;33069;51.970;5.892;2022-09-30T16:06:53;18.10;55.10
47338;DHT22;33069;51.970;5.892;2022-09-30T16:09:28;17.80;54.30
47338;DHT22;33069;51.970;5.892;2022-09-30T16:12:14;17.30;55.60
47338;DHT22;33069;51.970;5.892;2022-09-30T16:17:36;17.20;56.40
47338;DHT22;33069;51.970;5.892;2022-09-30T16:25:27;17.90;55.00
47338;DHT22;33069;51.970;5.892;2022-09-30T16:28:15;17.50;56.30
47338;DHT22;33069;51.970;5.892;2022-09-30T16:30:48;17.90;55.20
47338;DHT22;33069;51.970;5.892;2022-09-30T16:33:15;17.80;55.80
47338;DHT22;33069;51.970;5.892;2022-09-30T16:35:44;17.50;56.40
47338;DHT22;33069;51.970;5.892;2022-09-30T16:38:14;17.00;56.90
47338;DHT22;33069;51.970;5.892;2022-09-30T16:40:40;16.90;57.30
47338;DHT22;33069;51.970;5.892;2022-09-30T16:43:06;16.50;59.30
47338;DHT22;33069;51.970;5.892;2022-09-30T16:45:34;16.60;58.70
47338;DHT22;33069;51.970;5.892;2022-09-30T16:48:01;16.70;58.60
47338;DHT22;33069;51.970;5.892;2022-09-30T16:50:39;16.30;59.30
47338;DHT22;33069;51.970;5.892;2022-09-30T16:53:06;16.50;59.90
47338;DHT22;33069;51.970;5.892;2022-09-30T16:55:34;16.20;59.40
47338;DHT22;33069;51.970;5.892;2022-09-30T16:57:59;15.90;61.00
47338;DHT22;33069;51.970;5.892;2022-09-30T17:00:27;16.00;60.50
47338;DHT22;33069;51.970;5.892;2022-09-30T17:02:52;16.00;60.00
47338;DHT22;33069;51.970;5.892;2022-09-30T17:05:21;15.90;60.10
47338;DHT22;33069;51.970;5.892;2022-09-30T17:07:51;15.70;61.30
47338;DHT22;33069;51.970;5.892;2022-09-30T17:10:20;15.80;60.80
47338;DHT22;33069;51.970;5.892;2022-09-30T17:12:46;15.70;61.00
47338;DHT22;33069;51.970;5.892;2022-09-30T17:15:16;15.40;62.10
47338;DHT22;33069;51.970;5.892;2022-09-30T17:17:41;15.20;63.30
47338;DHT22;33069;51.970;5.892;2022-09-30T17:20:07;15.20;63.10
47338;DHT22;33069;51.970;5.892;2022-09-30T17:22:33;15.20;62.80
47338;DHT22;33069;51.970;5.892;2022-09-30T17:24:59;15.10;63.40
47338;DHT22;33069;51.970;5.892;2022-09-30T17:27:25;15.00;63.50
47338;DHT22;33069;51.970;5.892;2022-09-30T17:29:51;15.20;62.90
47338;DHT22;33069;51.970;5.892;2022-09-30T17:32:17;14.90;64.10
47338;DHT22;33069;51.970;5.892;2022-09-30T17:34:43;14.80;64.80
47338;DHT22;33069;51.970;5.892;2022-09-30T17:37:09;14.70;65.60
47338;DHT22;33069;51.970;5.892;2022-09-30T17:39:37;14.60;66.20
47338;DHT22;33069;51.970;5.892;2022-09-30T17:42:03;14.50;66.70
47338;DHT22;33069;51.970;5.892;2022-09-30T17:44:47;14.50;66.90
47338;DHT22;33069;51.970;5.892;2022-09-30T17:47:13;14.30;67.50
47338;DHT22;33069;51.970;5.892;2022-09-30T17:49:39;14.20;67.60
47338;DHT22;33069;51.970;5.892;2022-09-30T17:52:04;14.10;67.70
47338;DHT22;33069;51.970;5.892;2022-09-30T17:54:30;14.00;68.40
47338;DHT22;33069;51.970;5.892;2022-09-30T17:56:57;14.00;68.50
47338;DHT22;33069;51.970;5.892;2022-09-30T17:59:23;14.00;68.70
47338;DHT22;33069;51.970;5.892;2022-09-30T18:01:51;14.00;68.40
47338;DHT22;33069;51.970;5.892;2022-09-30T18:04:17;13.90;68.40
47338;DHT22;33069;51.970;5.892;2022-09-30T18:06:44;13.90;68.60
47338;DHT22;33069;51.970;5.892;2022-09-30T18:09:10;13.90;69.10
47338;DHT22;33069;51.970;5.892;2022-09-30T18:11:36;14.00;68.60
47338;DHT22;33069;51.970;5.892;2022-09-30T18:14:02;13.90;68.70
47338;DHT22;33069;51.970;5.892;2022-09-30T18:16:30;13.80;69.20
47338;DHT22;33069;51.970;5.892;2022-09-30T18:18:59;13.80;69.90
47338;DHT22;33069;51.970;5.892;2022-09-30T18:21:25;13.70;69.70
47338;DHT22;33069;51.970;5.892;2022-09-30T18:23:53;13.60;69.60
47338;DHT22;33069;51.970;5.892;2022-09-30T18:26:23;13.60;70.20
47338;DHT22;33069;51.970;5.892;2022-09-30T18:28:49;13.40;70.30
47338;DHT22;33069;51.970;5.892;2022-09-30T18:31:18;13.30;71.00
47338;DHT22;33069;51.970;5.892;2022-09-30T18:33:56;13.30;71.30
47338;DHT22;33069;51.970;5.892;2022-09-30T18:36:23;13.20;71.80
47338;DHT22;33069;51.970;5.892;2022-09-30T18:38:49;13.20;71.90
47338;DHT22;33069;51.970;5.892;2022-09-30T18:41:15;13.10;71.80
47338;DHT22;33069;51.970;5.892;2022-09-30T18:43:41;13.00;72.30
47338;DHT22;33069;51.970;5.892;2022-09-30T18:46:10;13.10;72.60
47338;DHT22;33069;51.970;5.892;2022-09-30T18:48:37;13.10;71.90
47338;DHT22;33069;51.970;5.892;2022-09-30T18:51:04;13.20;71.50
47338;DHT22;33069;51.970;5.892;2022-09-30T18:53:31;13.30;71.30
47338;DHT22;33069;51.970;5.892;2022-09-30T18:56:04;13.20;71.40
47338;DHT22;33069;51.970;5.892;2022-09-30T18:58:30;13.10;71.70
47338;DHT22;33069;51.970;5.892;2022-09-30T19:01:00;13.00;72.20
47338;DHT22;33069;51.970;5.892;2022-09-30T19:03:30;12.90;72.10
47338;DHT22;33069;51.970;5.892;2022-09-30T19:05:57;12.80;72.30
47338;DHT22;33069;51.970;5.892;2022-09-30T19:08:24;12.80;72.60
47338;DHT22;33069;51.970;5.892;2022-09-30T19:10:50;12.90;72.40
47338;DHT22;33069;51.970;5.892;2022-09-30T19:13:16;13.00;72.30
47338;DHT22;33069;51.970;5.892;2022-09-30T19:15:42;12.90;72.10